Time;durP1;ratioP1;P1;durP2;ratioP2;P2;SDS_P1;SDS_P2;PMS_P1;PMS_P2;Temp;Humidity;BMP_temperature;BMP_pressure;BME280_temperature;BME280_humidity;BME280_pressure;Samples;Min_cycle;Max_cycle;Signal;HPM_P1;HPM_P2
2021/12/28 00:00:13;;;;;;;8.45;4.47;;;;;;;22.31;2.72;100616.22;5116192;28;20028;-74
2021/12/28 00:02:39;;;;;;;6.38;4.30;;;;;;;22.30;2.73;100618.13;5116032;28;20027;-74
2021/12/28 00:05:04;;;;;;;6.53;4.07;;;;;;;22.28;2.67;100616.75;5115777;28;20099;-72
2021/12/28 00:07:30;;;;;;;6.80;4.00;;;;;;;22.26;2.76;100611.53;5098298;28;20114;-72
2021/12/28 00:09:55;;;;;;;6.75;3.88;;;;;;;22.31;2.85;100613.50;5116008;28;20019;-72
2021/12/28 00:12:21;;;;;;;6.40;4.22;;;;;;;22.29;2.75;100608.31;5134289;27;20043;-72
2021/12/28 00:15:02;;;;;;;7.07;3.92;;;;;;;22.28;2.63;100612.13;5135354;27;20461;-72
2021/12/28 00:20:12;;;;;;;6.72;4.22;;;;;;;22.31;2.69;100627.13;5136245;27;20030;-72
2021/12/28 00:22:37;;;;;;;6.70;4.05;;;;;;;22.28;2.82;100633.91;5136293;27;20034;-72
2021/12/28 00:25:04;;;;;;;6.60;4.05;;;;;;;22.26;2.69;100636.03;5136232;27;20031;-72
2021/12/28 00:27:29;;;;;;;7.03;3.83;;;;;;;22.25;2.65;100639.00;5135925;27;20098;-72
2021/12/28 00:29:55;;;;;;;7.53;4.30;;;;;;;22.27;2.72;100643.16;5135729;27;20034;-72
2021/12/28 00:32:21;;;;;;;8.45;4.50;;;;;;;22.26;2.66;100649.63;5136126;27;20023;-72
2021/12/28 00:34:46;;;;;;;6.30;3.63;;;;;;;22.24;2.59;100654.53;5135868;27;20076;-72
2021/12/28 00:37:12;;;;;;;6.70;3.95;;;;;;;22.29;2.67;100656.50;5117695;27;20033;-76
2021/12/28 00:39:37;;;;;;;5.95;4.13;;;;;;;22.28;2.65;100658.41;5117522;27;20090;-77
2021/12/28 00:42:03;;;;;;;7.80;4.63;;;;;;;22.26;2.66;100657.00;5135368;27;20019;-76
2021/12/28 00:44:28;;;;;;;6.75;3.80;;;;;;;22.25;2.64;100658.91;5135351;27;20023;-76
2021/12/28 00:46:54;;;;;;;7.95;4.78;;;;;;;22.25;2.52;100656.19;5117448;27;20019;-77
2021/12/28 00:49:19;;;;;;;7.97;4.07;;;;;;;22.27;2.58;100653.19;5117010;27;20381;-77
2021/12/28 00:51:44;;;;;;;7.00;4.43;;;;;;;22.22;2.59;100645.81;5135610;27;20039;-77
2021/12/28 00:54:10;;;;;;;7.40;4.40;;;;;;;22.23;2.69;100644.72;5135133;27;20477;-76
2021/12/28 00:56:35;;;;;;;8.13;4.05;;;;;;;22.22;2.51;100645.81;5135751;27;20035;-76
2021/12/28 00:59:01;;;;;;;8.73;4.70;;;;;;;22.22;2.64;100644.97;5117122;27;20023;-76
2021/12/28 01:01:26;;;;;;;8.05;4.30;;;;;;;22.25;2.53;100649.88;5135670;27;20342;-76
2021/12/28 01:03:51;;;;;;;8.55;4.10;;;;;;;22.21;2.59;100649.59;5136016;27;20483;-77
2021/12/28 01:06:17;;;;;;;7.38;3.78;;;;;;;22.25;2.59;100650.72;5140384;27;20031;-77
2021/12/28 01:08:42;;;;;;;6.70;4.10;;;;;;;22.20;2.60;100658.84;5141364;27;20015;-76
2021/12/28 01:11:07;;;;;;;7.85;4.88;;;;;;;22.20;2.69;100647.16;5159900;27;20027;-76
2021/12/28 01:13:33;;;;;;;8.25;4.20;;;;;;;22.18;2.31;100650.13;5142156;27;20031;-76
2021/12/28 01:15:58;;;;;;;8.85;3.75;;;;;;;22.21;2.57;100652.31;5159004;27;20104;-76
2021/12/28 01:18:24;;;;;;;7.47;4.15;;;;;;;22.21;2.62;100657.75;5157113;27;20027;-76
2021/12/28 01:20:50;;;;;;;8.80;4.35;;;;;;;22.16;2.52;100660.44;5140912;27;20402;-76
2021/12/28 01:23:15;;;;;;;6.22;3.90;;;;;;;22.18;2.54;100658.28;5135642;27;20023;-76
2021/12/28 01:25:41;;;;;;;6.10;4.03;;;;;;;22.22;2.50;100655.88;5155427;27;20019;-76
2021/12/28 01:28:06;;;;;;;9.48;4.93;;;;;;;22.20;2.71;100652.59;5153260;27;20023;-77
2021/12/28 01:30:32;;;;;;;9.43;4.20;;;;;;;22.18;2.62;100652.84;5127754;27;20042;-77
2021/12/28 01:32:59;;;;;;;6.97;4.00;;;;;;;22.16;2.51;100646.00;5145288;27;20027;-76
2021/12/28 01:35:25;;;;;;;7.45;4.57;;;;;;;22.17;2.67;100648.47;5145849;27;20026;-76
2021/12/28 01:37:50;;;;;;;6.53;3.80;;;;;;;22.19;2.65;100649.03;5127137;27;20067;-76
2021/12/28 01:40:19;;;;;;;6.70;3.55;;;;;;;22.20;2.54;100647.16;5146710;27;20022;-76
2021/12/28 01:43:08;;;;;;;7.63;4.22;;;;;;;22.24;2.69;100659.16;5138269;27;20100;-77
2021/12/28 01:45:42;;;;;;;7.35;4.18;;;;;;;22.19;2.72;100659.91;5134726;27;20031;-77
2021/12/28 01:48:08;;;;;;;;;;;;;;;22.41;2.73;100667.22;5135090;27;20031;-76
2021/12/28 01:50:37;;;;;;;8.43;4.55;;;;;;;22.29;2.57;100668.22;5134637;27;19916;-76
2021/12/28 01:53:03;;;;;;;9.27;4.38;;;;;;;22.23;2.63;100663.78;5134696;27;20098;-76
2021/12/28 01:55:29;;;;;;;9.80;4.75;;;;;;;22.19;2.82;100662.66;5134650;27;20440;-76
2021/12/28 01:57:54;;;;;;;7.28;3.97;;;;;;;22.17;2.70;100664.81;5115903;27;20024;-76
2021/12/28 02:00:19;;;;;;;6.35;3.63;;;;;;;22.17;2.58;100670.25;5115973;27;20027;-76
2021/12/28 02:02:45;;;;;;;8.43;4.95;;;;;;;22.20;2.63;100664.28;5134419;28;20498;-76
2021/12/28 02:05:10;;;;;;;10.10;4.78;;;;;;;22.17;2.65;100675.69;5134429;28;20043;-76
2021/12/28 02:07:36;;;;;;;7.80;4.13;;;;;;;22.19;2.64;100678.97;5115844;28;20492;-77
2021/12/28 02:10:01;;;;;;;7.30;3.60;;;;;;;22.19;2.77;100670.81;5116067;28;20034;-76
2021/12/28 02:12:30;;;;;;;8.63;4.40;;;;;;;22.16;2.71;100668.59;5115857;28;20039;-76
2021/12/28 02:14:56;;;;;;;6.43;4.10;;;;;;;22.17;2.64;100664.81;5134242;28;20076;-76
2021/12/28 02:17:22;;;;;;;7.53;4.32;;;;;;;22.16;2.67;100667.78;5134364;28;20049;-77
2021/12/28 02:19:47;;;;;;;6.88;4.40;;;;;;;22.16;2.62;100659.63;5134236;28;20030;-76
2021/12/28 02:22:13;;;;;;;9.07;4.20;;;;;;;22.15;2.74;100660.72;5134275;28;20023;-77
2021/12/28 02:24:38;;;;;;;9.07;4.53;;;;;;;22.16;2.79;100660.44;5134156;28;20030;-77
2021/12/28 02:27:04;;;;;;;9.20;4.47;;;;;;;22.20;2.63;100658.84;5134056;28;20034;-77
2021/12/28 02:29:29;;;;;;;7.13;4.10;;;;;;;22.15;2.82;100669.69;5134102;28;20419;-77
2021/12/28 02:31:55;;;;;;;6.25;3.60;;;;;;;22.17;2.73;100669.44;5116267;28;20038;-77
2021/12/28 02:34:24;;;;;;;6.15;3.67;;;;;;;22.16;2.71;100668.59;5134276;28;20019;-77
2021/12/28 02:36:50;;;;;;;9.20;4.93;;;;;;;22.16;2.73;100667.78;5134592;27;20030;-77
2021/12/28 02:39:15;;;;;;;8.23;4.22;;;;;;;22.15;2.63;100658.81;5138344;27;20028;-76
2021/12/28 02:41:41;;;;;;;6.20;4.28;;;;;;;22.17;2.79;100662.09;5138601;27;20024;-77
2021/12/28 02:44:06;;;;;;;7.85;4.32;;;;;;;22.18;2.71;100661.03;5138042;27;20414;-77
2021/12/28 02:46:32;;;;;;;7.47;4.25;;;;;;;22.16;2.83;100663.16;5119437;27;20023;-76
2021/12/28 02:48:57;;;;;;;6.70;3.83;;;;;;;22.16;2.91;100663.16;5137783;27;20027;-77
2021/12/28 02:51:22;;;;;;;7.43;3.85;;;;;;;22.17;2.92;100659.38;5138519;27;20026;-76
2021/12/28 02:53:48;;;;;;;9.07;4.68;;;;;;;22.16;3.03;100656.91;5137660;27;20465;-76
2021/12/28 02:56:14;;;;;;;7.65;4.45;;;;;;;22.18;3.06;100666.47;5119542;27;20023;-77
2021/12/28 02:58:42;;;;;;;7.35;4.07;;;;;;;22.14;3.03;100670.75;5105203;28;20023;-77
2021/12/28 03:01:16;;;;;;;10.45;5.15;;;;;;;22.19;3.02;100661.81;5099013;28;20036;-77
2021/12/28 03:03:44;;;;;;;9.75;4.55;;;;;;;22.14;3.06;100665.31;5116860;28;20031;-77
2021/12/28 03:06:12;;;;;;;6.65;4.40;;;;;;;22.16;3.13;100667.78;5098505;28;20118;-77
2021/12/28 03:08:40;;;;;;;10.77;5.05;;;;;;;22.18;3.02;100671.06;5098634;28;20432;-76
2021/12/28 03:11:06;;;;;;;8.20;4.53;;;;;;;22.19;3.27;100672.72;5098858;28;20080;-76
2021/12/28 03:13:37;;;;;;;7.00;4.47;;;;;;;22.16;3.26;100674.03;5098410;28;20023;-76
2021/12/28 03:16:03;;;;;;;8.32;4.28;;;;;;;22.17;3.24;100664.00;5116944;28;20024;-77
2021/12/28 03:18:28;;;;;;;6.10;4.47;;;;;;;22.15;3.30;100666.97;5098385;28;20027;-76
2021/12/28 03:20:54;;;;;;;9.45;5.20;;;;;;;22.16;3.30;100667.78;5117023;28;20438;-76
2021/12/28 03:23:21;;;;;;;7.30;4.63;;;;;;;22.16;3.38;100668.59;5116674;28;20485;-76
2021/12/28 03:25:46;;;;;;;8.82;4.95;;;;;;;22.17;3.25;100670.25;5116781;28;20068;-76
2021/12/28 03:28:23;;;;;;;7.90;5.28;;;;;;;22.17;3.33;100670.25;5116790;28;20024;-77
2021/12/28 03:30:49;;;;;;;8.75;4.53;;;;;;;22.16;3.32;100660.44;5098348;28;20110;-76
2021/12/28 03:33:15;;;;;;;7.60;4.60;;;;;;;22.15;3.37;100653.38;5116620;28;20024;-77
2021/12/28 03:35:40;;;;;;;8.82;4.88;;;;;;;22.18;3.36;100644.69;5116171;28;20055;-76
2021/12/28 03:38:05;;;;;;;7.38;4.63;;;;;;;22.18;3.42;100647.41;5116498;28;20042;-77
2021/12/28 03:40:31;;;;;;;7.03;4.50;;;;;;;22.18;3.43;100652.84;5116233;28;20035;-77
2021/12/28 03:42:56;;;;;;;7.65;4.80;;;;;;;22.18;3.35;100662.91;5115982;28;20030;-77
2021/12/28 03:45:22;;;;;;;11.32;5.55;;;;;;;22.18;3.42;100665.63;5115897;28;20027;-77
2021/12/28 03:47:47;;;;;;;8.50;4.70;;;;;;;22.20;3.36;100664.28;5116059;28;20065;-77
2021/12/28 03:50:14;;;;;;;9.57;5.05;;;;;;;22.19;3.55;100673.53;5116318;28;20027;-76
2021/12/28 03:52:40;;;;;;;8.70;5.50;;;;;;;22.16;3.49;100673.22;5116180;28;20101;-76
2021/12/28 03:55:06;;;;;;;9.48;5.00;;;;;;;22.14;3.49;100665.31;5097652;28;20390;-77
2021/12/28 03:57:32;;;;;;;6.85;4.70;;;;;;;22.15;3.58;100668.88;5116531;28;20019;-77
2021/12/28 03:59:57;;;;;;;8.85;4.85;;;;;;;22.17;3.55;100667.53;5115741;28;20069;-77
2021/12/28 04:02:23;;;;;;;10.60;5.32;;;;;;;22.14;3.65;100676.19;5097900;28;20035;-77
2021/12/28 04:04:48;;;;;;;5.78;4.28;;;;;;;22.20;3.49;100669.75;5115920;28;20020;-77
2021/12/28 04:07:20;;;;;;;7.88;4.70;;;;;;;22.18;3.58;100669.19;5097196;28;20031;-76
2021/12/28 04:12:15;;;;;;;10.15;5.05;;;;;;;22.19;3.59;100670.81;5097645;28;20401;-77
2021/12/28 04:14:40;;;;;;;8.73;5.00;;;;;;;22.21;3.65;100665.91;5115788;28;20024;-77
2021/12/28 04:17:06;;;;;;;6.72;4.47;;;;;;;22.22;3.69;100673.03;5115138;28;20020;-76
2021/12/28 04:19:31;;;;;;;7.72;4.63;;;;;;;22.21;3.77;100671.38;5115313;28;20035;-76
2021/12/28 04:21:57;;;;;;;6.70;4.38;;;;;;;22.26;3.73;100668.69;5114891;28;20026;-76
2021/12/28 04:24:22;;;;;;;7.43;4.78;;;;;;;22.28;3.74;100665.75;5115483;28;20098;-77
2021/12/28 04:26:48;;;;;;;6.53;4.22;;;;;;;22.26;3.76;100657.00;5097134;28;20031;-77
2021/12/28 04:29:13;;;;;;;7.40;4.50;;;;;;;22.30;3.82;100645.34;5115340;28;20039;-77
2021/12/28 04:31:38;;;;;;;6.88;4.60;;;;;;;22.28;3.84;100633.06;5115362;28;20466;-76
2021/12/28 04:34:04;;;;;;;6.65;4.18;;;;;;;22.28;3.89;100617.59;5097100;28;20088;-76
2021/12/28 04:36:30;;;;;;;6.63;4.47;;;;;;;22.28;4.09;100628.47;5096647;28;20024;-76
2021/12/28 04:38:55;;;;;;;6.70;4.18;;;;;;;22.31;4.04;100621.66;5096928;28;20024;-77
2021/12/28 04:41:20;;;;;;;7.85;4.43;;;;;;;22.33;3.85;100629.59;5114882;28;20458;-77
2021/12/28 04:43:47;;;;;;;8.07;4.97;;;;;;;22.34;4.16;100636.69;5114854;28;20024;-76
2021/12/28 04:46:13;;;;;;;8.18;4.70;;;;;;;22.36;4.07;100629.88;5096933;28;20023;-77
2021/12/28 04:48:38;;;;;;;8.32;4.60;;;;;;;22.39;4.21;100631.28;5115267;28;20027;-77
2021/12/28 04:51:04;;;;;;;9.32;5.15;;;;;;;22.39;4.16;100628.56;5096918;28;20039;-77
2021/12/28 04:53:29;;;;;;;8.80;4.60;;;;;;;22.37;4.16;100633.41;5115078;28;20024;-77
2021/12/28 04:55:55;;;;;;;7.68;5.38;;;;;;;22.38;4.11;100637.78;5115878;28;20058;-77
2021/12/28 04:58:21;;;;;;;7.20;4.70;;;;;;;22.39;4.22;100628.56;5096574;28;20031;-77
2021/12/28 05:00:47;;;;;;;7.20;4.65;;;;;;;22.38;4.34;100621.44;5116009;28;20103;-76
2021/12/28 05:03:13;;;;;;;7.85;4.40;;;;;;;22.41;4.22;100635.38;5096471;28;20035;-76
2021/12/28 05:05:40;;;;;;;7.50;4.60;;;;;;;22.44;4.23;100634.03;5114553;28;20028;-76
2021/12/28 05:08:06;;;;;;;6.05;4.45;;;;;;;22.45;4.35;100638.38;5114894;28;20024;-76
2021/12/28 05:10:32;;;;;;;6.68;4.00;;;;;;;22.48;4.18;100635.16;5117411;27;20095;-76
2021/12/28 05:12:58;;;;;;;7.03;3.80;;;;;;;22.53;4.26;100640.63;5135244;27;20106;-76
2021/12/28 05:15:23;;;;;;;7.03;4.55;;;;;;;22.58;4.30;100651.56;5135030;27;20027;-76
2021/12/28 05:17:48;;;;;;;8.07;4.35;;;;;;;22.60;4.21;100667.66;5134788;27;20024;-76
2021/12/28 05:20:14;;;;;;;8.18;4.63;;;;;;;22.62;4.22;100660.84;5135026;27;20023;-77
2021/12/28 05:22:39;;;;;;;8.13;4.82;;;;;;;22.40;4.54;100662.84;5135116;27;20453;-76
2021/12/28 05:25:05;;;;;;;7.32;4.13;;;;;;;22.59;4.46;100666.81;5116482;27;20027;-76
